Time;durP1;ratioP1;P1;durP2;ratioP2;P2;SDS_P1;SDS_P2;PMS_P1;PMS_P2;Temp;Humidity;BMP_temperature;BMP_pressure;BME280_temperature;BME280_humidity;BME280_pressure;Samples;Min_cycle;Max_cycle;Signal;HPM_P1;HPM_P2
2023/08/08 00:00:52;;;;;;;10.07;2.95;;;14.90;99.90;;;;;;5032581;28;20522;-51
2023/08/08 00:03:17;;;;;;;5.68;2.17;;;14.90;99.90;;;;;;5032717;28;20036;-50
2023/08/08 00:05:43;;;;;;;3.63;1.45;;;14.90;99.90;;;;;;4996825;28;20401;-50
2023/08/08 00:08:08;;;;;;;3.47;1.50;;;14.90;99.90;;;;;;5012808;28;20028;-49
2023/08/08 00:10:34;;;;;;;4.70;1.75;;;15.00;99.90;;;;;;5012493;28;20038;-51
2023/08/08 00:12:59;;;;;;;2.65;1.63;;;15.00;99.90;;;;;;4995063;28;20025;-52
2023/08/08 00:15:25;;;;;;;1.52;1.25;;;15.00;99.90;;;;;;4994921;28;20032;-48
2023/08/08 00:17:50;;;;;;;3.00;2.00;;;15.00;99.90;;;;;;4994900;28;20018;-52
2023/08/08 00:20:16;;;;;;;2.47;1.65;;;15.00;99.90;;;;;;5012315;28;20025;-53
2023/08/08 00:22:41;;;;;;;6.00;1.88;;;15.00;99.90;;;;;;5012502;28;20520;-50
2023/08/08 00:25:07;;;;;;;2.67;1.58;;;15.00;99.90;;;;;;5012275;28;20033;-50
2023/08/08 00:27:33;;;;;;;2.17;1.50;;;15.00;99.90;;;;;;5012338;28;20030;-49
2023/08/08 00:29:59;;;;;;;2.78;1.52;;;15.00;99.90;;;;;;5012008;28;20382;-53
2023/08/08 00:32:25;;;;;;;2.35;1.50;;;15.00;99.90;;;;;;5012413;28;20046;-51
2023/08/08 00:34:51;;;;;;;2.05;1.83;;;15.00;99.90;;;;;;4994446;28;20116;-48
2023/08/08 00:37:16;;;;;;;1.75;1.63;;;15.00;99.90;;;;;;5012258;28;20066;-50
2023/08/08 00:39:45;;;;;;;1.90;1.40;;;14.90;99.90;;;;;;5011925;28;20504;-51
2023/08/08 00:42:12;;;;;;;3.58;1.48;;;14.90;99.90;;;;;;5012212;28;20153;-52
2023/08/08 00:44:38;;;;;;;1.67;1.50;;;14.90;99.90;;;;;;5012031;28;20028;-52
2023/08/08 00:47:03;;;;;;;2.80;1.48;;;14.90;99.90;;;;;;5012190;28;20032;-50
2023/08/08 00:49:29;;;;;;;3.65;1.60;;;14.90;99.90;;;;;;5011664;28;20022;-50
2023/08/08 00:51:55;;;;;;;2.25;1.25;;;14.90;99.90;;;;;;5012155;28;20076;-47
2023/08/08 00:54:21;;;;;;;2.20;1.70;;;14.80;99.90;;;;;;5011851;28;20068;-46
2023/08/08 00:56:47;;;;;;;2.08;1.40;;;14.90;99.90;;;;;;5011931;28;20029;-49
2023/08/08 00:59:15;;;;;;;2.35;1.40;;;14.80;99.90;;;;;;5011789;28;20017;-47
2023/08/08 01:01:41;;;;;;;2.75;1.33;;;14.80;99.90;;;;;;5012202;28;20026;-47
2023/08/08 01:04:07;;;;;;;2.72;1.52;;;14.90;99.90;;;;;;4994264;28;20040;-47
2023/08/08 01:43:35;;;;;;;1.58;1.48;;;14.80;99.90;;;;;;5011619;28;20493;-48
2023/08/08 01:46:02;;;;;;;3.75;1.48;;;14.80;99.90;;;;;;5010332;28;20111;-49
2023/08/08 01:48:28;;;;;;;2.78;1.23;;;14.80;99.90;;;;;;5011323;28;20076;-49
2023/08/08 01:50:53;;;;;;;2.65;1.60;;;14.80;99.90;;;;;;5011108;28;20026;-51
2023/08/08 01:53:19;;;;;;;4.28;1.77;;;14.80;99.90;;;;;;5011384;28;20482;-47
2023/08/08 01:55:44;;;;;;;1.60;1.50;;;14.80;99.90;;;;;;5011258;28;20034;-49
2023/08/08 01:58:10;;;;;;;2.67;1.20;;;14.80;99.90;;;;;;5011345;28;20029;-49
2023/08/08 02:00:36;;;;;;;1.70;1.40;;;14.80;99.90;;;;;;5010805;28;20026;-52
2023/08/08 02:03:02;;;;;;;2.75;1.60;;;14.80;99.90;;;;;;5011414;28;20034;-53
2023/08/08 02:05:28;;;;;;;2.95;1.23;;;14.70;99.90;;;;;;5011235;28;20075;-51
2023/08/08 02:07:53;;;;;;;1.20;1.20;;;14.70;99.90;;;;;;4995613;28;20519;-47
2023/08/08 02:10:19;;;;;;;4.63;1.67;;;14.70;99.90;;;;;;4997083;28;20030;-47
2023/08/08 02:12:44;;;;;;;1.50;1.23;;;14.70;99.90;;;;;;5014881;28;20022;-52
2023/08/08 02:15:10;;;;;;;1.50;1.40;;;14.60;99.90;;;;;;4997042;28;20044;-47
2023/08/08 02:17:37;;;;;;;4.35;1.52;;;14.60;99.90;;;;;;4997138;28;20028;-48
2023/08/08 02:20:03;;;;;;;4.30;1.40;;;14.50;99.90;;;;;;5014620;28;20482;-51
2023/08/08 02:22:28;;;;;;;1.55;1.45;;;14.50;99.90;;;;;;4997054;28;20029;-49
2023/08/08 02:24:54;;;;;;;2.80;2.60;;;14.40;99.90;;;;;;5014976;28;20084;-49
2023/08/08 02:27:20;;;;;;;3.78;1.63;;;14.30;99.90;;;;;;5014633;28;20452;-51
2023/08/08 02:29:45;;;;;;;1.63;1.40;;;14.30;99.90;;;;;;5014209;28;20036;-52
2023/08/08 02:32:10;;;;;;;5.05;1.60;;;14.20;99.90;;;;;;5014561;28;20062;-52
2023/08/08 02:34:36;;;;;;;2.92;1.30;;;14.20;99.90;;;;;;4996807;28;20665;-52
2023/08/08 02:37:02;;;;;;;3.45;1.70;;;14.10;99.90;;;;;;4996842;28;20112;-49
2023/08/08 02:39:27;;;;;;;3.40;1.63;;;14.10;99.90;;;;;;4996570;28;20504;-50
2023/08/08 02:41:53;;;;;;;2.10;2.00;;;14.00;99.90;;;;;;5014269;28;20536;-53
2023/08/08 02:44:19;;;;;;;3.28;1.70;;;13.90;99.90;;;;;;4996469;28;20064;-51
2023/08/08 02:46:45;;;;;;;2.08;1.60;;;13.90;99.90;;;;;;5014424;28;20474;-51
2023/08/08 02:49:10;;;;;;;3.00;1.73;;;13.80;99.90;;;;;;5013867;28;20041;-49
2023/08/08 02:51:36;;;;;;;2.50;1.92;;;13.70;99.90;;;;;;5014059;28;20022;-50
2023/08/08 02:54:01;;;;;;;1.85;1.75;;;13.60;99.90;;;;;;5014000;28;20026;-51
2023/08/08 02:56:27;;;;;;;1.77;1.52;;;13.50;99.90;;;;;;5014081;28;20061;-49
2023/08/08 02:58:52;;;;;;;2.63;1.73;;;13.40;99.90;;;;;;5013720;28;20028;-48
2023/08/08 03:01:18;;;;;;;7.10;1.73;;;13.40;99.90;;;;;;4996248;28;20022;-54
2023/08/08 03:03:43;;;;;;;3.95;1.92;;;13.30;99.90;;;;;;5013958;28;20421;-48
2023/08/08 03:06:09;;;;;;;2.75;2.10;;;13.20;99.90;;;;;;4996277;28;20033;-48
2023/08/08 03:08:34;;;;;;;3.40;1.67;;;13.20;99.90;;;;;;5013816;28;20500;-52
2023/08/08 03:11:00;;;;;;;3.42;1.70;;;13.10;99.90;;;;;;5013433;28;20113;-50
2023/08/08 03:13:26;;;;;;;4.38;1.98;;;13.20;99.90;;;;;;5013768;28;20477;-48
2023/08/08 03:15:51;;;;;;;2.00;1.88;;;13.10;99.90;;;;;;5013614;28;20030;-50
2023/08/08 03:18:17;;;;;;;6.78;1.92;;;13.10;99.90;;;;;;5012675;28;20021;-47
2023/08/08 03:20:42;;;;;;;2.15;1.88;;;13.10;99.90;;;;;;5013066;28;20108;-53
2023/08/08 03:23:08;;;;;;;6.57;2.05;;;13.10;99.90;;;;;;4996410;28;20389;-49
2023/08/08 03:25:34;;;;;;;2.80;1.73;;;13.00;99.90;;;;;;4995845;28;20088;-47
2023/08/08 03:27:59;;;;;;;5.38;2.40;;;13.00;99.90;;;;;;5013464;28;20115;-49
2023/08/08 03:30:25;;;;;;;4.20;2.45;;;13.00;99.90;;;;;;5013253;28;20065;-49
2023/08/08 03:32:50;;;;;;;1.90;1.80;;;12.90;99.90;;;;;;5013501;28;20033;-50
2023/08/08 03:35:16;;;;;;;3.13;2.03;;;12.90;99.90;;;;;;5013396;28;20022;-49
2023/08/08 03:37:42;;;;;;;5.00;2.67;;;12.90;99.90;;;;;;5013539;28;20143;-50
2023/08/08 03:40:08;;;;;;;2.00;1.85;;;12.90;99.90;;;;;;5013304;28;20397;-53
2023/08/08 03:42:34;;;;;;;2.45;2.20;;;12.90;99.90;;;;;;5013745;28;20033;-53
2023/08/08 03:44:59;;;;;;;1.85;1.75;;;12.90;99.90;;;;;;5013528;28;20022;-55
2023/08/08 03:47:25;;;;;;;3.10;1.73;;;12.80;99.90;;;;;;5013512;28;20037;-54
2023/08/08 03:49:53;;;;;;;1.80;1.70;;;12.80;99.90;;;;;;5013145;28;20115;-50
2023/08/08 03:52:18;;;;;;;2.88;2.03;;;12.90;99.90;;;;;;5013029;28;20037;-49
2023/08/08 03:54:44;;;;;;;5.82;2.45;;;12.90;99.90;;;;;;5012848;28;20485;-52
2023/08/08 03:57:09;;;;;;;3.20;2.40;;;12.90;99.90;;;;;;5012977;28;20473;-53
2023/08/08 03:59:35;;;;;;;3.30;2.10;;;12.90;99.90;;;;;;5012580;28;20025;-50
2023/08/08 04:02:00;;;;;;;2.17;1.98;;;12.90;99.90;;;;;;5012994;28;20053;-53
2023/08/08 04:04:26;;;;;;;2.13;1.90;;;12.90;99.90;;;;;;5012829;28;20057;-52
2023/08/08 04:06:51;;;;;;;3.50;2.83;;;12.90;99.90;;;;;;4995227;28;20068;-50
2023/08/08 04:09:17;;;;;;;1.88;1.77;;;12.90;99.90;;;;;;5012776;28;20018;-49
2023/08/08 04:11:42;;;;;;;9.50;2.00;;;12.90;99.90;;;;;;5012720;28;20473;-54
2023/08/08 04:14:08;;;;;;;1.70;1.60;;;12.80;99.90;;;;;;5012599;28;20401;-49
2023/08/08 04:16:33;;;;;;;5.43;1.83;;;12.70;99.90;;;;;;5013000;28;20026;-49
2023/08/08 04:18:59;;;;;;;3.35;1.63;;;12.70;99.90;;;;;;5012509;28;20041;-49
2023/08/08 04:21:27;;;;;;;7.15;2.03;;;12.60;99.90;;;;;;5012528;28;20482;-50
2023/08/08 04:23:52;;;;;;;2.67;2.17;;;12.60;99.90;;;;;;4994709;28;20026;-48
2023/08/08 04:26:18;;;;;;;3.55;1.90;;;12.60;99.90;;;;;;4994874;28;20029;-49
2023/08/08 04:28:44;;;;;;;5.80;1.98;;;12.60;99.90;;;;;;4994841;28;20465;-48
2023/08/08 04:31:09;;;;;;;3.45;1.98;;;12.60;99.90;;;;;;5012112;28;20026;-52
2023/08/08 04:33:35;;;;;;;3.75;1.90;;;12.60;99.90;;;;;;5012333;28;20157;-48
2023/08/08 04:36:00;;;;;;;1.58;1.48;;;12.60;99.90;;;;;;4994602;28;20030;-49
2023/08/08 04:38:26;;;;;;;2.13;1.65;;;12.60;99.90;;;;;;5012085;28;20026;-50
2023/08/08 04:40:51;;;;;;;7.93;2.30;;;12.70;99.90;;;;;;5012084;28;20026;-50
2023/08/08 04:43:17;;;;;;;2.78;2.08;;;12.70;99.90;;;;;;5012084;28;20060;-51
2023/08/08 04:45:42;;;;;;;6.05;2.00;;;12.70;99.90;;;;;;5012182;28;20105;-49
2023/08/08 04:48:08;;;;;;;5.43;2.00;;;12.70;99.90;;;;;;4994507;28;20030;-50
2023/08/08 04:50:33;;;;;;;3.63;2.42;;;12.70;99.90;;;;;;4994073;28;20037;-52
2023/08/08 04:52:59;;;;;;;5.72;2.13;;;12.70;99.90;;;;;;5011886;28;20109;-50
2023/08/08 04:55:24;;;;;;;3.60;2.28;;;12.70;99.90;;;;;;5011675;28;20096;-51
2023/08/08 04:57:50;;;;;;;2.65;2.30;;;12.70;99.90;;;;;;5011813;28;20033;-54
2023/08/08 05:00:16;;;;;;;3.15;2.08;;;12.80;99.90;;;;;;5011370;28;20029;-49
2023/08/08 05:02:41;;;;;;;3.60;2.15;;;12.80;99.90;;;;;;5011808;28;20025;-49
2023/08/08 05:05:07;;;;;;;6.82;2.17;;;12.90;99.90;;;;;;5011772;28;20113;-48
2023/08/08 05:07:36;;;;;;;4.22;2.22;;;13.10;99.90;;;;;;5011647;28;20026;-49
2023/08/08 05:10:02;;;;;;;2.95;2.08;;;13.20;99.90;;;;;;5011559;28;20029;-48
2023/08/08 05:12:28;;;;;;;3.78;1.58;;;13.30;99.90;;;;;;5011735;28;20022;-49
2023/08/08 05:14:53;;;;;;;5.97;2.30;;;13.50;99.90;;;;;;5011735;28;20493;-50
2023/08/08 05:17:19;;;;;;;5.57;2.03;;;13.80;99.90;;;;;;5011510;28;20033;-53
2023/08/08 05:19:44;;;;;;;4.13;2.35;;;14.20;99.90;;;;;;5011451;28;20037;-51
2023/08/08 05:22:10;;;;;;;5.70;1.90;;;14.70;99.90;;;;;;5011759;28;20018;-48
2023/08/08 05:24:35;;;;;;;3.65;2.00;;;15.30;99.90;;;;;;5011592;28;20018;-49
2023/08/08 05:27:03;;;;;;;1.88;1.75;;;15.90;99.90;;;;;;5011650;28;20049;-51
2023/08/08 05:29:28;;;;;;;10.35;2.25;;;16.30;99.90;;;;;;5011291;28;20026;-51
2023/08/08 05:31:54;;;;;;;4.32;1.80;;;16.90;99.90;;;;;;4993826;28;20019;-53
2023/08/08 05:34:19;;;;;;;3.13;2.00;;;17.40;99.90;;;;;;5007976;28;20501;-49
2023/08/08 05:36:45;;;;;;;7.78;1.88;;;18.10;99.90;;;;;;5011974;28;20671;-48
2023/08/08 05:39:10;;;;;;;3.33;1.77;;;18.60;99.90;;;;;;5011027;28;20485;-48
2023/08/08 05:41:36;;;;;;;2.28;1.38;;;19.10;99.90;;;;;;5011745;28;20030;-50
2023/08/08 05:44:01;;;;;;;2.78;1.83;;;19.60;99.90;;;;;;5015364;28;20026;-48
2023/08/08 05:46:27;;;;;;;4.18;1.70;;;20.20;99.90;;;;;;4997665;28;20052;-48
2023/08/08 05:48:52;;;;;;;4.78;1.85;;;20.60;99.90;;;;;;5015039;28;20454;-49
2023/08/08 05:51:18;;;;;;;4.93;1.50;;;21.00;99.90;;;;;;5015036;28;20105;-51
2023/08/08 05:53:43;;;;;;;2.38;1.40;;;21.50;99.90;;;;;;5014099;28;20026;-49
2023/08/08 05:56:09;;;;;;;2.15;1.30;;;21.60;99.90;;;;;;5016085;23;20043;-50
2023/08/08 05:58:36;;;;;;;4.28;2.00;;;21.60;99.90;;;;;;4995528;28;20022;-52
2023/08/08 06:01:05;;;;;;;3.72;1.70;;;21.50;99.90;;;;;;4995477;28;20057;-52
2023/08/08 06:03:31;;;;;;;2.88;1.45;;;21.40;99.90;;;;;;4995538;28;20050;-49
2023/08/08 06:05:57;;;;;;;2.13;1.30;;;21.20;99.90;;;;;;4995450;28;20027;-50
2023/08/08 06:08:23;;;;;;;2.10;1.40;;;21.30;99.90;;;;;;4995278;28;20034;-50
2023/08/08 06:10:48;;;;;;;1.92;1.25;;;21.50;99.90;;;;;;4995246;28;20034;-49
2023/08/08 06:13:14;;;;;;;4.03;1.70;;;21.90;99.90;;;;;;4995397;28;20094;-49
2023/08/08 06:15:39;;;;;;;1.75;1.20;;;22.20;99.90;;;;;;4995342;28;20093;-49
2023/08/08 06:18:06;;;;;;;2.55;1.05;;;22.00;99.90;;;;;;4995400;28;20037;-52
2023/08/08 06:20:31;;;;;;;5.45;2.25;;;21.90;99.90;;;;;;4994996;28;20038;-51
2023/08/08 06:22:57;;;;;;;2.92;1.00;;;22.30;99.90;;;;;;4994902;28;20048;-49
2023/08/08 06:25:22;;;;;;;3.05;1.40;;;22.70;99.90;;;;;;4995044;28;20490;-49
2023/08/08 06:27:48;;;;;;;4.80;1.48;;;23.20;99.30;;;;;;4994585;28;20355;-49
2023/08/08 06:30:13;;;;;;;3.78;1.35;;;23.60;98.70;;;;;;4993505;28;20026;-49
2023/08/08 06:32:39;;;;;;;1.48;1.35;;;23.80;97.60;;;;;;4995046;28;20023;-49
2023/08/08 06:35:05;;;;;;;2.45;0.80;;;23.70;97.80;;;;;;4995239;28;20088;-55
2023/08/08 06:37:31;;;;;;;0.90;0.90;;;24.00;97.50;;;;;;4993271;28;20023;-50
2023/08/08 06:39:56;;;;;;;3.20;1.05;;;24.50;97.00;;;;;;4994551;28;20080;-49
2023/08/08 06:42:22;;;;;;;2.10;0.80;;;24.90;96.30;;;;;;4994804;28;20541;-52
2023/08/08 06:44:48;;;;;;;3.72;0.82;;;25.00;95.90;;;;;;4994827;28;20018;-49
2023/08/08 06:47:13;;;;;;;7.63;1.05;;;25.30;95.80;;;;;;4994790;28;20031;-52
2023/08/08 06:49:39;;;;;;;1.95;0.80;;;25.60;94.80;;;;;;4993064;28;20030;-49
2023/08/08 06:52:05;;;;;;;3.50;1.00;;;26.00;94.10;;;;;;4994728;28;20517;-51
2023/08/08 06:54:31;;;;;;;2.50;0.90;;;26.20;93.90;;;;;;4994259;28;20050;-52
2023/08/08 06:56:57;;;;;;;1.17;0.80;;;26.20;93.50;;;;;;4994681;28;20015;-53
2023/08/08 06:59:23;;;;;;;1.92;1.10;;;26.10;92.70;;;;;;4992738;28;20023;-49
2023/08/08 07:01:50;;;;;;;4.95;1.02;;;25.90;92.30;;;;;;4994540;28;20494;-51
2023/08/08 07:04:17;;;;;;;2.38;0.93;;;26.00;92.30;;;;;;4994012;28;20085;-51
2023/08/08 07:06:43;;;;;;;3.15;0.90;;;25.60;92.70;;;;;;4995607;28;20030;-55
2023/08/08 07:09:10;;;;;;;3.22;0.70;;;25.70;92.50;;;;;;4994454;28;20094;-55
2023/08/08 07:11:36;;;;;;;3.95;1.00;;;25.70;92.20;;;;;;4994372;28;20515;-53
2023/08/08 07:14:02;;;;;;;2.00;0.95;;;25.60;92.50;;;;;;4994249;28;20037;-51
2023/08/08 07:16:28;;;;;;;2.28;0.70;;;25.80;91.60;;;;;;4994122;28;20030;-56
2023/08/08 07:18:53;;;;;;;4.72;0.98;;;26.20;91.30;;;;;;4993988;28;20026;-55
2023/08/08 07:21:19;;;;;;;5.00;0.75;;;26.50;90.50;;;;;;4993983;28;20069;-54
2023/08/08 07:23:44;;;;;;;1.35;0.70;;;26.90;89.60;;;;;;4994194;28;20056;-56
2023/08/08 07:26:10;;;;;;;1.13;0.90;;;26.90;89.70;;;;;;4993575;28;20490;-52
2023/08/08 07:28:36;;;;;;;1.55;0.85;;;27.30;88.40;;;;;;4993048;28;20023;-53
2023/08/08 07:31:01;;;;;;;1.80;1.10;;;27.70;87.60;;;;;;4993698;28;20037;-52
2023/08/08 07:33:27;;;;;;;1.05;0.70;;;27.90;85.60;;;;;;4993847;28;20123;-50
2023/08/08 07:35:52;;;;;;;0.90;0.60;;;28.10;84.30;;;;;;4993812;28;20041;-51
2023/08/08 07:38:18;;;;;;;1.42;0.70;;;28.00;84.00;;;;;;4993776;28;20077;-54
2023/08/08 07:40:43;;;;;;;1.10;0.80;;;27.60;83.50;;;;;;4993783;28;20030;-57
2023/08/08 07:43:09;;;;;;;1.95;1.08;;;27.30;84.20;;;;;;4996070;28;20514;-55
2023/08/08 07:45:34;;;;;;;2.13;1.00;;;26.80;84.60;;;;;;4993103;28;20069;-56
2023/08/08 07:48:00;;;;;;;2.60;1.00;;;26.70;84.40;;;;;;4993604;28;20058;-55
2023/08/08 07:50:25;;;;;;;3.47;0.77;;;26.10;85.10;;;;;;4993338;28;20036;-54
2023/08/08 07:52:51;;;;;;;2.22;0.70;;;25.40;85.90;;;;;;4993648;28;20029;-49
2023/08/08 07:55:16;;;;;;;7.85;1.58;;;24.70;87.80;;;;;;4993153;28;20030;-56
2023/08/08 07:57:42;;;;;;;1.60;0.93;;;23.80;89.90;;;;;;4992915;28;20092;-51
2023/08/08 08:00:12;;;;;;;1.30;0.80;;;23.30;91.10;;;;;;4992055;28;20449;-48
2023/08/08 08:02:38;;;;;;;4.63;1.05;;;23.10;91.70;;;;;;4995478;28;20026;-52
2023/08/08 08:05:07;;;;;;;4.45;1.08;;;23.00;91.30;;;;;;4993799;28;20053;-51
2023/08/08 08:07:34;;;;;;;0.73;0.57;;;22.90;92.00;;;;;;4993362;28;20494;-51
2023/08/08 08:10:00;;;;;;;2.85;0.90;;;22.90;91.90;;;;;;4994039;28;20057;-51
2023/08/08 08:12:26;;;;;;;3.47;1.05;;;23.20;91.70;;;;;;4995863;28;20034;-49
2023/08/08 08:14:51;;;;;;;2.20;1.10;;;23.20;92.00;;;;;;4994682;28;20485;-55
2023/08/08 08:17:17;;;;;;;1.15;0.77;;;23.20;91.80;;;;;;4993728;28;20050;-49
2023/08/08 08:19:42;;;;;;;2.00;0.85;;;23.30;91.90;;;;;;4991504;28;20022;-52
2023/08/08 08:22:08;;;;;;;2.90;0.90;;;23.10;92.50;;;;;;4993159;28;20031;-53
2023/08/08 08:24:34;;;;;;;4.40;1.00;;;23.00;92.30;;;;;;4992789;28;20030;-52
2023/08/08 08:26:59;;;;;;;1.58;0.98;;;22.80;92.40;;;;;;4992173;28;20022;-55
2023/08/08 08:29:25;;;;;;;1.52;0.77;;;22.60;92.90;;;;;;4992734;28;20034;-51
2023/08/08 08:31:50;;;;;;;1.98;0.93;;;22.40;93.60;;;;;;4992497;28;20494;-50
2023/08/08 08:34:16;;;;;;;4.25;1.98;;;22.30;92.70;;;;;;4992467;28;20029;-52
2023/08/08 08:36:41;;;;;;;2.30;0.82;;;22.10;92.70;;;;;;4992564;28;20029;-52
2023/08/08 08:39:07;;;;;;;5.13;2.28;;;22.00;92.90;;;;;;4991748;28;20022;-54
2023/08/08 08:41:36;;;;;;;6.75;4.45;;;21.80;93.10;;;;;;4990834;28;20022;-52
2023/08/08 08:44:03;;;;;;;6.88;2.97;;;21.80;92.90;;;;;;4992410;28;20034;-51
2023/08/08 08:46:29;;;;;;;3.83;1.15;;;21.80;93.90;;;;;;4991135;28;20113;-50
2023/08/08 08:48:58;;;;;;;2.53;1.08;;;21.80;93.70;;;;;;4992376;28;20518;-49
2023/08/08 08:51:24;;;;;;;3.08;1.13;;;21.70;93.70;;;;;;4992008;28;20030;-52
2023/08/08 08:53:50;;;;;;;1.55;0.90;;;21.60;93.60;;;;;;4994040;28;20027;-51
2023/08/08 08:56:16;;;;;;;1.30;0.98;;;21.50;94.20;;;;;;4992542;28;20418;-49
2023/08/08 08:58:42;;;;;;;1.40;1.30;;;21.40;94.80;;;;;;4991263;28;20037;-54
2023/08/08 09:01:09;;;;;;;1.10;0.95;;;21.40;95.00;;;;;;4991245;28;20026;-56
2023/08/08 09:03:35;;;;;;;1.30;0.90;;;21.70;95.10;;;;;;4992613;28;20030;-51
2023/08/08 09:06:02;;;;;;;4.13;1.20;;;22.00;95.10;;;;;;4993506;28;20506;-51
2023/08/08 09:08:29;;;;;;;2.05;1.80;;;22.10;94.40;;;;;;4993201;28;20088;-52
2023/08/08 09:10:56;;;;;;;2.30;1.23;;;22.20;94.60;;;;;;4997325;28;20092;-54
2023/08/08 09:13:22;;;;;;;1.20;0.90;;;22.10;94.30;;;;;;4998422;28;20078;-54
2023/08/08 09:15:51;;;;;;;1.02;1.00;;;22.10;95.10;;;;;;4990870;28;20113;-52
2023/08/08 09:18:17;;;;;;;2.85;1.17;;;22.20;95.20;;;;;;4994904;28;20045;-54
2023/08/08 09:20:48;;;;;;;2.92;1.00;;;22.30;95.20;;;;;;4992535;28;20113;-56
2023/08/08 09:23:14;;;;;;;1.05;0.98;;;22.50;94.90;;;;;;4992230;28;20066;-52
2023/08/08 09:25:39;;;;;;;3.65;1.15;;;22.40;94.80;;;;;;4992174;28;20470;-56
2023/08/08 09:28:05;;;;;;;4.88;1.60;;;22.60;95.00;;;;;;4992060;28;20453;-50
2023/08/08 09:30:31;;;;;;;2.78;1.10;;;22.30;96.00;;;;;;4991830;28;20094;-54
2023/08/08 09:33:00;;;;;;;2.30;1.00;;;22.20;94.50;;;;;;4991511;28;20058;-55
2023/08/08 09:35:29;;;;;;;4.22;1.10;;;22.00;95.20;;;;;;4994676;28;20557;-53
2023/08/08 09:37:55;;;;;;;3.17;1.30;;;21.90;95.30;;;;;;4993353;28;20498;-52
2023/08/08 09:40:22;;;;;;;2.30;1.13;;;22.10;95.80;;;;;;4990419;28;20022;-55
2023/08/08 09:42:48;;;;;;;2.90;1.23;;;22.30;95.70;;;;;;4992317;28;20022;-51
2023/08/08 09:45:14;;;;;;;1.70;1.13;;;22.60;95.20;;;;;;4991702;28;20059;-53
2023/08/08 09:47:40;;;;;;;7.68;1.52;;;22.60;95.10;;;;;;4991786;28;20070;-54
2023/08/08 09:50:06;;;;;;;1.65;1.17;;;22.50;96.20;;;;;;4991264;28;20397;-51
2023/08/08 09:52:34;;;;;;;1.88;1.00;;;22.10;94.90;;;;;;4991100;28;20026;-50
2023/08/08 09:55:00;;;;;;;5.13;1.27;;;22.10;95.20;;;;;;4990532;28;20563;-53
2023/08/08 09:57:26;;;;;;;5.03;1.60;;;22.00;95.80;;;;;;4991688;28;20026;-52
2023/08/08 09:59:52;;;;;;;1.35;1.25;;;22.00;95.00;;;;;;4991701;28;20390;-48
2023/08/08 10:02:18;;;;;;;3.15;1.27;;;21.90;95.90;;;;;;4991599;28;20023;-51
2023/08/08 10:04:47;;;;;;;3.22;1.17;;;22.10;95.90;;;;;;4991732;28;20438;-55
2023/08/08 10:07:14;;;;;;;2.92;1.00;;;22.20;96.00;;;;;;4991899;28;20027;-49
2023/08/08 10:09:39;;;;;;;1.90;1.20;;;22.10;96.10;;;;;;4991176;28;20026;-51
2023/08/08 10:12:06;;;;;;;2.17;1.10;;;22.00;95.90;;;;;;4991867;28;20062;-52
2023/08/08 10:14:34;;;;;;;2.03;1.38;;;22.00;96.00;;;;;;4992108;28;20029;-52
2023/08/08 10:17:03;;;;;;;3.38;1.30;;;21.90;95.70;;;;;;4991696;28;20022;-52
2023/08/08 10:19:29;;;;;;;1.70;1.08;;;21.50;95.90;;;;;;4990014;28;20027;-53
2023/08/08 10:22:03;;;;;;;3.65;1.58;;;21.30;96.40;;;;;;4991182;28;20096;-53
2023/08/08 10:24:36;;;;;;;2.67;1.45;;;21.10;96.60;;;;;;4991633;28;20030;-53
2023/08/08 10:27:04;;;;;;;6.43;1.50;;;21.10;97.70;;;;;;4991742;28;20502;-52
2023/08/08 10:29:31;;;;;;;5.53;1.65;;;21.20;98.00;;;;;;4993959;28;20026;-50
2023/08/08 10:32:04;;;;;;;1.30;1.15;;;21.30;97.30;;;;;;4974347;28;20030;-52
2023/08/08 10:34:41;;;;;;;2.15;1.00;;;21.20;97.20;;;;;;4975489;28;20075;-48
2023/08/08 10:37:17;;;;;;;3.75;1.27;;;21.40;97.90;;;;;;4975683;28;20031;-51
2023/08/08 10:39:59;;;;;;;4.80;1.40;;;21.60;98.10;;;;;;4975362;28;20022;-53
2023/08/08 10:42:27;;;;;;;1.75;1.10;;;21.60;97.90;;;;;;4994960;28;20498;-54
2023/08/08 10:44:54;;;;;;;2.22;1.38;;;21.70;97.30;;;;;;4994696;28;20393;-48
2023/08/08 10:47:34;;;;;;;3.95;1.50;;;21.60;96.80;;;;;;4993545;28;20441;-50
2023/08/08 10:50:09;;;;;;;2.28;1.17;;;21.50;96.60;;;;;;4994642;28;20042;-54
2023/08/08 10:52:52;;;;;;;12.07;7.90;;;21.50;97.10;;;;;;4994912;28;20033;-53
2023/08/08 10:55:33;;;;;;;5.30;2.80;;;21.60;97.00;;;;;;4994481;28;20038;-48
2023/08/08 10:58:04;;;;;;;1.95;1.20;;;21.90;96.00;;;;;;4994621;28;20033;-50
2023/08/08 11:00:35;;;;;;;1.77;1.30;;;21.90;95.50;;;;;;4993230;28;20022;-51
2023/08/08 11:03:02;;;;;;;3.15;1.23;;;21.80;96.10;;;;;;4994291;28;20034;-53
2023/08/08 11:05:31;;;;;;;2.78;1.45;;;21.80;96.20;;;;;;4993835;28;20027;-53
2023/08/08 11:07:57;;;;;;;3.58;1.35;;;21.70;95.90;;;;;;4994322;28;20034;-52
2023/08/08 11:10:23;;;;;;;4.30;1.50;;;21.60;96.60;;;;;;4993936;28;20038;-50
2023/08/08 11:13:04;;;;;;;1.73;1.35;;;21.50;96.50;;;;;;4994442;28;20023;-53
2023/08/08 11:15:32;;;;;;;3.40;1.30;;;21.50;96.90;;;;;;4994006;28;20065;-54
2023/08/08 11:17:59;;;;;;;2.75;1.30;;;21.50;95.60;;;;;;4994315;28;20031;-50
2023/08/08 11:20:29;;;;;;;3.28;1.40;;;21.40;95.80;;;;;;4994223;28;20508;-50
2023/08/08 11:22:55;;;;;;;8.25;2.50;;;21.40;96.40;;;;;;4994234;28;20046;-54
2023/08/08 11:25:29;;;;;;;1.70;1.58;;;21.50;97.00;;;;;;4994332;28;20034;-51
2023/08/08 11:27:56;;;;;;;2.25;1.20;;;21.50;96.70;;;;;;4993298;28;20034;-51
2023/08/08 11:30:23;;;;;;;4.00;1.50;;;21.50;96.80;;;;;;4993498;28;20067;-52
2023/08/08 11:32:50;;;;;;;1.90;1.40;;;21.50;97.00;;;;;;4992610;28;20072;-50
2023/08/08 11:35:22;;;;;;;1.98;1.48;;;21.60;96.90;;;;;;4980871;28;20061;-53
2023/08/08 11:37:50;;;;;;;2.10;1.10;;;21.60;95.70;;;;;;4996419;28;20054;-55
2023/08/08 11:40:16;;;;;;;4.05;1.20;;;21.70;95.60;;;;;;4995393;28;20510;-50
2023/08/08 11:42:44;;;;;;;2.85;1.10;;;21.70;95.10;;;;;;4993533;28;20070;-53
2023/08/08 11:45:10;;;;;;;6.78;1.38;;;21.70;95.60;;;;;;4993578;28;20026;-53
2023/08/08 11:47:37;;;;;;;2.67;1.10;;;21.70;95.60;;;;;;4992692;28;20032;-49
2023/08/08 11:50:05;;;;;;;2.78;1.85;;;21.80;95.70;;;;;;4993086;28;20307;-49
2023/08/08 11:52:30;;;;;;;1.85;1.70;;;21.80;95.70;;;;;;4991939;28;20018;-49
2023/08/08 11:54:59;;;;;;;3.67;1.30;;;21.80;94.80;;;;;;5006964;23;20076;-47
2023/08/08 11:57:25;;;;;;;3.92;1.52;;;21.80;95.20;;;;;;5012126;28;20027;-45
2023/08/08 11:59:57;;;;;;;5.40;1.63;;;22.00;95.30;;;;;;5011121;28;20060;-46
2023/08/08 12:02:23;;;;;;;1.92;1.38;;;21.90;95.40;;;;;;5011358;28;20379;-48
2023/08/08 12:04:49;;;;;;;2.22;1.20;;;21.90;96.20;;;;;;5012305;28;20374;-46
2023/08/08 12:07:16;;;;;;;1.73;1.38;;;21.90;95.90;;;;;;5011935;28;20037;-44
2023/08/08 12:09:42;;;;;;;2.53;1.38;;;22.00;96.00;;;;;;5012068;28;20088;-43
2023/08/08 12:12:08;;;;;;;3.92;1.75;;;22.00;95.60;;;;;;5012473;28;20022;-47
2023/08/08 12:14:38;;;;;;;4.35;1.77;;;21.90;95.10;;;;;;5012349;28;20026;-52
2023/08/08 12:17:04;;;;;;;3.45;1.65;;;21.90;95.70;;;;;;5013634;28;20022;-48
2023/08/08 12:19:30;;;;;;;3.97;1.67;;;21.90;95.30;;;;;;5012145;28;20030;-50
2023/08/08 12:21:55;;;;;;;10.00;5.57;;;21.80;95.50;;;;;;5012685;28;20037;-47
2023/08/08 12:24:20;;;;;;;6.70;2.63;;;21.80;95.40;;;;;;5012721;28;20516;-47
2023/08/08 12:26:46;;;;;;;4.32;3.47;;;21.90;95.30;;;;;;5011748;28;20034;-45
2023/08/08 12:29:13;;;;;;;1.77;1.67;;;21.80;95.90;;;;;;5012184;28;20026;-44
2023/08/08 12:31:39;;;;;;;2.97;1.77;;;21.90;95.60;;;;;;5011908;28;20060;-46
2023/08/08 12:34:04;;;;;;;5.38;1.92;;;22.00;95.70;;;;;;5011598;28;20045;-45
2023/08/08 12:36:30;;;;;;;3.00;1.45;;;22.00;95.10;;;;;;5011624;28;20018;-44
2023/08/08 12:38:56;;;;;;;5.75;1.52;;;21.90;92.50;;;;;;5011752;28;20029;-46
2023/08/08 12:41:23;;;;;;;6.40;1.85;;;21.90;92.30;;;;;;5011405;28;20508;-45
2023/08/08 12:43:49;;;;;;;2.20;1.23;;;21.90;92.40;;;;;;5011769;28;20038;-48
2023/08/08 12:46:15;;;;;;;1.50;1.40;;;21.80;92.50;;;;;;5011987;28;20037;-45
2023/08/08 12:48:40;;;;;;;3.30;1.40;;;21.90;92.90;;;;;;5012044;28;20030;-46
2023/08/08 12:51:07;;;;;;;3.92;1.63;;;22.20;92.30;;;;;;5012022;28;20425;-44
2023/08/08 12:53:33;;;;;;;11.30;2.50;;;21.90;92.80;;;;;;5011847;28;20500;-43
2023/08/08 12:55:59;;;;;;;2.70;1.55;;;21.90;93.60;;;;;;5011561;28;20037;-45
2023/08/08 12:58:25;;;;;;;9.13;2.63;;;22.00;93.40;;;;;;5012555;28;20080;-46
2023/08/08 13:00:50;;;;;;;5.75;1.98;;;22.00;92.60;;;;;;5011951;28;20030;-44
2023/08/08 13:03:16;;;;;;;2.70;1.73;;;21.90;92.30;;;;;;5011902;28;20101;-47
2023/08/08 13:05:41;;;;;;;5.85;2.30;;;21.80;92.60;;;;;;5011451;28;20053;-44
2023/08/08 13:08:07;;;;;;;4.35;1.10;;;21.80;92.60;;;;;;5011704;28;20358;-45
2023/08/08 13:10:32;;;;;;;4.93;1.58;;;21.70;92.30;;;;;;4993717;28;20072;-49
2023/08/08 13:12:58;;;;;;;2.75;1.27;;;21.60;93.40;;;;;;4993735;28;20105;-47
2023/08/08 13:15:24;;;;;;;3.33;1.60;;;21.40;93.10;;;;;;5011377;28;20357;-44
2023/08/08 13:17:49;;;;;;;1.90;1.00;;;21.50;93.60;;;;;;5011319;28;20018;-47